Time;durP1;ratioP1;P1;durP2;ratioP2;P2;SDS_P1;SDS_P2;PMS_P1;PMS_P2;Temp;Humidity;BMP_temperature;BMP_pressure;BME280_temperature;BME280_humidity;BME280_pressure;Samples;Min_cycle;Max_cycle;Signal;HPM_P1;HPM_P2
2023/01/06 00:03:31;;;;;;;6.53;3.22;;;;;;;-10.36;85.79;101583.09;10523303;28;20044;-76
2023/01/06 00:08:34;;;;;;;6.82;2.80;;;;;;;-10.24;86.11;101576.78;10503178;28;20060;-75
2023/01/06 00:13:38;;;;;;;7.18;2.70;;;;;;;-10.15;85.04;101597.25;10523903;28;20044;-77
2023/01/06 00:18:40;;;;;;;4.72;2.50;;;;;;;-10.08;85.87;101594.94;10528623;28;20040;-76
2023/01/06 00:23:43;;;;;;;6.72;3.17;;;;;;;-10.07;84.72;101596.63;10511797;28;20045;-76
2023/01/06 00:28:45;;;;;;;6.03;2.60;;;;;;;-10.08;84.46;101600.25;10520327;28;20410;-76
2023/01/06 00:33:47;;;;;;;5.50;2.30;;;;;;;-10.05;84.41;101597.38;10520946;28;20079;-74
2023/01/06 00:38:50;;;;;;;4.80;2.40;;;;;;;-10.01;84.56;101606.75;10522346;28;20431;-74
2023/01/06 00:43:54;;;;;;;4.45;2.28;;;;;;;-9.95;83.79;101611.56;10521293;28;20410;-74
2023/01/06 00:48:57;;;;;;;4.32;1.70;;;;;;;-9.89;83.72;101608.44;10487711;28;20048;-75
2023/01/06 00:53:59;;;;;;;4.07;1.90;;;;;;;-9.88;83.64;101622.53;10519838;28;20047;-73
2023/01/06 00:59:02;;;;;;;4.75;1.90;;;;;;;-9.82;83.02;101625.53;10497121;28;20040;-73
2023/01/06 01:04:04;;;;;;;4.70;1.92;;;;;;;-9.79;82.67;101629.75;10526264;28;20614;-74
2023/01/06 01:09:07;;;;;;;3.20;1.33;;;;;;;-9.79;82.41;101643.88;10519007;28;20047;-73
2023/01/06 01:14:10;;;;;;;2.58;1.15;;;;;;;-9.79;82.17;101643.03;10502441;28;20052;-73
2023/01/06 01:19:13;;;;;;;4.20;1.75;;;;;;;-9.75;81.05;101641.78;10506230;28;20036;-73
2023/01/06 01:24:15;;;;;;;3.83;1.10;;;;;;;-9.77;80.20;101646.38;10512575;28;20044;-73
2023/01/06 01:29:19;;;;;;;3.47;1.42;;;;;;;-9.70;77.60;101666.19;10523904;28;20037;-74
2023/01/06 01:34:21;;;;;;;1.88;1.02;;;;;;;-9.69;77.21;101662.56;10503533;28;20040;-75
2023/01/06 01:39:27;;;;;;;1.48;0.90;;;;;;;-9.64;75.95;101673.66;10504739;28;20054;-74
2023/01/06 01:44:44;;;;;;;1.58;0.88;;;;;;;-9.61;76.00;101683.16;10485989;28;20119;-74
2023/01/06 01:49:48;;;;;;;1.70;0.57;;;;;;;-9.56;74.55;101687.13;10516002;28;20044;-73
2023/01/06 01:54:52;;;;;;;2.30;0.90;;;;;;;-9.55;74.76;101702.09;10519438;28;20045;-72
2023/01/06 01:59:54;;;;;;;2.60;0.88;;;;;;;-9.54;74.82;101709.13;10489990;28;20040;-74
2023/01/06 02:04:57;;;;;;;2.40;0.90;;;;;;;-9.50;75.50;101715.88;10521742;28;20036;-74
2023/01/06 02:10:19;;;;;;;1.80;0.93;;;;;;;-9.42;75.56;101710.75;10502716;28;20061;-74
2023/01/06 02:15:30;;;;;;;0.80;0.80;;;;;;;-9.37;76.35;101720.16;10491310;28;20056;-74
2023/01/06 02:20:51;;;;;;;0.80;0.80;;;;;;;-9.40;76.42;101715.94;10503108;28;20044;-73
2023/01/06 02:26:20;;;;;;;2.05;1.00;;;;;;;-9.39;76.43;101722.09;10525156;28;20048;-73
2023/01/06 02:31:48;;;;;;;1.20;0.70;;;;;;;-9.36;76.48;101722.72;10499187;28;20064;-73
2023/01/06 02:37:12;;;;;;;2.72;1.02;;;;;;;-9.28;76.29;101728.25;10515896;28;20063;-73
2023/01/06 02:42:47;;;;;;;2.20;0.90;;;;;;;-9.15;76.16;101744.88;10524601;28;20036;-74
2023/01/06 02:48:04;;;;;;;2.33;1.10;;;;;;;-9.05;76.02;101760.06;10447673;28;20051;-73
2023/01/06 02:53:39;;;;;;;1.93;0.90;;;;;;;-8.98;76.10;101771.88;10488001;28;20064;-74
2023/01/06 02:59:09;;;;;;;5.25;1.13;;;;;;;-8.91;76.33;101773.91;10501982;28;20049;-74
2023/01/06 03:04:17;;;;;;;2.92;1.10;;;;;;;-8.87;77.07;101759.38;10488926;28;20055;-74
2023/01/06 03:09:26;;;;;;;2.17;1.02;;;;;;;-8.89;76.66;101763.13;10508894;28;20434;-72
2023/01/06 03:14:34;;;;;;;2.08;0.80;;;;;;;-8.87;76.99;101767.34;10510401;28;20671;-73
2023/01/06 03:19:37;;;;;;;2.95;1.20;;;;;;;-8.88;77.35;101772.78;10526275;28;20526;-73
2023/01/06 03:24:41;;;;;;;3.25;0.50;;;;;;;-8.84;77.04;101775.09;10508744;28;20053;-74
2023/01/06 03:29:45;;;;;;;1.92;0.60;;;;;;;-8.79;76.60;101772.03;10473307;28;20503;-73
2023/01/06 03:35:02;;;;;;;3.80;1.42;;;;;;;-8.74;76.64;101777.81;10503541;28;20052;-73
2023/01/06 03:40:23;;;;;;;2.67;0.85;;;;;;;-8.71;77.03;101779.38;10492389;28;20045;-74
2023/01/06 03:45:31;;;;;;;2.25;0.60;;;;;;;-8.70;76.78;101781.91;10502359;28;20438;-74
2023/01/06 03:50:39;;;;;;;3.05;1.13;;;;;;;-8.62;77.65;101790.09;10505704;28;20036;-73
2023/01/06 03:55:45;;;;;;;0.70;0.60;;;;;;;-8.55;77.56;101793.09;10508129;28;20044;-72
2023/01/06 04:00:48;;;;;;;2.53;0.60;;;;;;;-8.52;77.62;101796.31;10496520;28;20056;-73
2023/01/06 04:05:53;;;;;;;1.55;0.80;;;;;;;-8.46;77.99;101799.47;10502165;28;20049;-73
2023/01/06 04:10:56;;;;;;;0.82;0.70;;;;;;;-8.46;78.66;101804.78;10505051;28;20056;-73
2023/01/06 04:15:58;;;;;;;1.48;1.20;;;;;;;-8.44;78.70;101811.66;10516108;28;20036;-74
2023/01/06 04:21:01;;;;;;;1.52;0.80;;;;;;;-8.39;78.85;101825.41;10492385;28;20040;-73
2023/01/06 04:26:05;;;;;;;1.08;0.80;;;;;;;-8.33;77.91;101826.69;10505915;28;20415;-73
2023/01/06 04:31:13;;;;;;;1.10;0.70;;;;;;;-8.25;77.89;101835.72;10498019;28;20411;-73
2023/01/06 04:36:16;;;;;;;2.28;0.65;;;;;;;-8.18;77.48;101829.84;10524361;28;20139;-73
2023/01/06 04:41:23;;;;;;;1.15;0.50;;;;;;;-8.13;77.08;101831.19;10501726;28;20045;-72
2023/01/06 04:46:26;;;;;;;1.40;0.70;;;;;;;-8.10;76.89;101843.38;10501908;28;20040;-72
2023/01/06 04:51:28;;;;;;;1.30;0.80;;;;;;;-8.05;76.38;101842.00;10524130;28;20047;-74
2023/01/06 04:56:30;;;;;;;1.02;0.70;;;;;;;-8.02;77.27;101851.56;10523351;28;20048;-73
2023/01/06 05:01:33;;;;;;;1.65;0.73;;;;;;;-8.01;77.49;101855.91;10512812;28;20338;-74
2023/01/06 05:06:35;;;;;;;0.88;0.73;;;;;;;-8.01;77.91;101846.09;10510571;28;20048;-73
2023/01/06 05:11:37;;;;;;;2.08;0.60;;;;;;;-7.99;78.24;101845.97;10510252;28;20048;-73
2023/01/06 05:16:40;;;;;;;1.33;0.80;;;;;;;-7.96;79.02;101851.88;10525439;28;20059;-72
2023/01/06 05:21:42;;;;;;;1.20;0.40;;;;;;;-7.95;78.90;101847.41;10515105;28;20534;-74
2023/01/06 05:26:44;;;;;;;2.72;0.90;;;;;;;-7.96;79.18;101851.88;10516649;28;20380;-73
2023/01/06 05:31:46;;;;;;;0.93;0.32;;;;;;;-7.97;78.96;101868.00;10522859;28;20040;-74
2023/01/06 05:36:49;;;;;;;4.22;1.00;;;;;;;-7.97;79.58;101860.00;10517389;28;20048;-74
2023/01/06 05:41:51;;;;;;;2.45;1.02;;;;;;;-8.00;79.40;101870.91;10522131;28;20048;-75
2023/01/06 05:46:53;;;;;;;1.33;0.60;;;;;;;-8.02;79.70;101883.50;10518025;28;20037;-75
2023/01/06 05:51:55;;;;;;;5.25;1.10;;;;;;;-7.99;78.73;101888.56;10515751;28;20060;-74
2023/01/06 05:56:58;;;;;;;2.08;0.80;;;;;;;-7.95;79.20;101896.19;10519877;28;20056;-74
2023/01/06 06:02:00;;;;;;;2.95;1.60;;;;;;;-7.97;78.88;101902.63;10522431;28;20123;-73
2023/01/06 06:07:02;;;;;;;5.45;2.75;;;;;;;-8.14;79.64;101909.38;10521154;28;20044;-73
2023/01/06 06:12:05;;;;;;;8.75;3.63;;;;;;;-8.36;79.99;101907.66;10522174;28;20517;-73
2023/01/06 06:17:08;;;;;;;12.38;4.60;;;;;;;-8.43;80.39;101916.31;10513845;28;20044;-74
2023/01/06 06:22:10;;;;;;;10.02;3.70;;;;;;;-8.45;80.44;101911.09;10510734;28;20127;-73
2023/01/06 06:27:12;;;;;;;7.80;4.05;;;;;;;-8.41;80.79;101917.88;10507635;28;20079;-73
2023/01/06 06:32:15;;;;;;;7.10;3.78;;;;;;;-8.55;81.37;101934.13;10520304;28;20041;-73
2023/01/06 06:37:17;;;;;;;6.60;3.42;;;;;;;-8.59;82.00;101946.00;10510384;28;20044;-73
2023/01/06 06:42:19;;;;;;;10.10;3.42;;;;;;;-8.58;82.37;101945.84;10512171;28;20415;-74
2023/01/06 06:47:21;;;;;;;7.03;3.13;;;;;;;-8.62;82.37;101954.22;10530784;28;20411;-74
2023/01/06 06:52:23;;;;;;;8.60;3.40;;;;;;;-8.64;82.87;101967.66;10531238;28;21464;-73
2023/01/06 06:57:26;;;;;;;7.65;2.88;;;;;;;-8.74;83.21;101980.00;10529574;28;20052;-75
2023/01/06 07:02:28;;;;;;;4.85;3.35;;;;;;;-8.71;83.19;101986.88;10528276;28;20060;-74
2023/01/06 07:07:30;;;;;;;6.95;3.28;;;;;;;-8.70;83.62;101988.56;10529161;28;20408;-73
2023/01/06 07:12:33;;;;;;;4.35;2.47;;;;;;;-8.67;84.22;101983.03;10527458;28;20049;-73
2023/01/06 07:17:35;;;;;;;6.80;3.30;;;;;;;-8.63;84.05;101974.66;10530336;28;20040;-73
2023/01/06 07:22:38;;;;;;;6.28;3.80;;;;;;;-8.64;84.52;101983.63;10527800;28;20044;-74
2023/01/06 07:27:40;;;;;;;10.05;5.00;;;;;;;-8.61;84.30;101982.53;10530931;28;20056;-74
2023/01/06 07:32:43;;;;;;;8.35;4.18;;;;;;;-8.55;84.60;101997.97;10525747;28;20056;-74
2023/01/06 07:37:45;;;;;;;6.20;3.95;;;;;;;-8.55;84.77;102001.47;10527101;28;20045;-74
2023/01/06 07:42:47;;;;;;;9.10;4.07;;;;;;;-8.49;84.78;101997.50;10526068;28;20422;-74
2023/01/06 07:47:49;;;;;;;10.13;3.72;;;;;;;-8.36;84.57;102006.16;10508955;28;20130;-74
2023/01/06 07:52:51;;;;;;;5.90;3.28;;;;;;;-8.29;84.76;102014.47;10524201;28;20419;-74
2023/01/06 07:57:54;;;;;;;8.18;4.32;;;;;;;-8.22;84.83;102013.84;10526470;28;20051;-73
2023/01/06 08:02:56;;;;;;;10.55;4.68;;;;;;;-8.24;85.05;102015.78;10524607;28;20048;-74
2023/01/06 08:07:58;;;;;;;10.38;5.38;;;;;;;-8.26;84.52;102036.38;10502393;28;20051;-75
2023/01/06 08:13:00;;;;;;;8.80;4.78;;;;;;;-8.26;84.59;102044.34;10528273;28;20044;-74
2023/01/06 08:18:03;;;;;;;8.93;5.90;;;;;;;-8.27;85.36;102045.31;10530137;28;20051;-75
2023/01/06 08:23:05;;;;;;;8.30;4.55;;;;;;;-8.24;85.59;102044.22;10490784;28;20048;-74
2023/01/06 08:28:07;;;;;;;9.20;4.93;;;;;;;-8.15;85.36;102054.16;10519175;28;20040;-75
2023/01/06 08:33:09;;;;;;;8.80;3.95;;;;;;;-8.12;85.40;102059.22;10504443;28;20048;-74
2023/01/06 08:38:12;;;;;;;8.90;4.13;;;;;;;-8.06;85.30;102060.53;10526070;28;20056;-74
2023/01/06 08:43:14;;;;;;;7.50;3.67;;;;;;;-8.04;85.48;102066.56;10523504;28;20040;-73
2023/01/06 08:48:16;;;;;;;10.23;4.80;;;;;;;-7.99;84.87;102064.38;10527252;28;20044;-74
2023/01/06 08:53:19;;;;;;;9.68;4.82;;;;;;;-7.98;84.93;102072.25;10526098;28;20422;-75
2023/01/06 08:58:21;;;;;;;10.48;5.32;;;;;;;-7.96;85.31;102078.31;10524913;28;20041;-75
2023/01/06 09:03:23;;;;;;;10.70;4.55;;;;;;;-8.00;84.59;102081.31;10514681;28;20047;-74
2023/01/06 09:08:25;;;;;;;10.50;6.15;;;;;;;-7.99;85.11;102067.03;10526754;28;20063;-74
2023/01/06 09:13:28;;;;;;;10.57;4.93;;;;;;;-7.94;85.14;102072.84;10510606;28;20045;-73
2023/01/06 09:18:30;;;;;;;11.10;5.55;;;;;;;-7.90;84.68;102069.78;10491985;28;20044;-75
2023/01/06 09:23:33;;;;;;;10.63;5.45;;;;;;;-7.96;84.86;102080.13;10512097;28;20056;-74
2023/01/06 09:28:40;;;;;;;14.52;6.20;;;;;;;-7.89;84.51;102081.31;10497347;28;20515;-74
2023/01/06 09:33:46;;;;;;;13.23;7.65;;;;;;;-7.87;85.12;102086.50;10515063;28;20051;-75
2023/01/06 09:38:48;;;;;;;12.43;6.57;;;;;;;-7.87;84.91;102086.50;10516305;28;20044;-74
2023/01/06 09:44:03;;;;;;;12.18;6.47;;;;;;;-7.83;85.30;102094.09;10500775;28;20521;-74
2023/01/06 09:49:39;;;;;;;12.45;6.35;;;;;;;-7.78;84.94;102102.59;10507961;28;20043;-73
2023/01/06 09:54:52;;;;;;;14.27;5.85;;;;;;;-7.74;84.82;102101.34;10513055;28;20079;-75
2023/01/06 09:59:58;;;;;;;11.23;5.60;;;;;;;-7.68;84.76;102100.00;10519811;28;20048;-75
2023/01/06 10:05:00;;;;;;;14.35;6.40;;;;;;;-7.64;84.34;102104.94;10494165;28;20037;-74
2023/01/06 10:10:21;;;;;;;11.82;5.70;;;;;;;-7.65;85.07;102089.06;10489140;28;20041;-74
2023/01/06 10:15:42;;;;;;;10.60;5.60;;;;;;;-7.63;84.67;102093.34;10504778;28;20040;-74
2023/01/06 10:20:57;;;;;;;12.68;5.95;;;;;;;-7.61;84.63;102102.03;10492519;28;20033;-74
2023/01/06 10:26:00;;;;;;;10.15;5.18;;;;;;;-7.51;84.55;102088.78;10510110;28;20071;-73
2023/01/06 10:31:05;;;;;;;9.52;5.35;;;;;;;-7.49;84.65;102085.97;10524362;28;20037;-74
2023/01/06 10:36:13;;;;;;;9.63;4.60;;;;;;;-7.43;84.46;102099.66;10512995;28;20498;-74
2023/01/06 10:41:45;;;;;;;7.20;3.65;;;;;;;-7.45;85.00;102090.94;10492585;28;23881;-74
2023/01/06 10:46:48;;;;;;;7.07;3.63;;;;;;;-7.40;85.39;102085.22;10516488;28;20043;-73
2023/01/06 10:51:54;;;;;;;10.30;4.68;;;;;;;-7.35;85.11;102088.34;10518143;28;20044;-73
2023/01/06 10:57:02;;;;;;;9.02;3.83;;;;;;;-7.33;85.12;102086.38;10513356;28;20066;-74
2023/01/06 11:02:21;;;;;;;8.55;3.67;;;;;;;-7.33;84.79;102086.38;10510110;28;20059;-72
2023/01/06 11:07:28;;;;;;;7.35;3.63;;;;;;;-7.32;84.93;102088.06;10530100;28;20051;-74
2023/01/06 11:12:34;;;;;;;6.67;3.20;;;;;;;-7.29;84.52;102101.16;10513296;28;20059;-74
2023/01/06 11:17:37;;;;;;;8.38;3.92;;;;;;;-7.27;84.73;102091.22;10536911;28;20065;-73
2023/01/06 11:22:41;;;;;;;6.25;3.25;;;;;;;-7.33;84.96;102086.38;10527784;28;20414;-74
2023/01/06 11:27:44;;;;;;;6.93;3.38;;;;;;;-7.37;85.38;102099.13;10511215;28;20036;-73
2023/01/06 11:32:47;;;;;;;7.28;3.60;;;;;;;-7.40;85.61;102093.22;10513046;28;20045;-74
2023/01/06 11:37:56;;;;;;;8.65;3.90;;;;;;;-7.34;85.75;102103.38;10512615;28;20048;-73
2023/01/06 11:43:02;;;;;;;7.00;3.42;;;;;;;-7.36;85.19;102100.81;10525573;28;20788;-76
2023/01/06 11:48:16;;;;;;;8.38;4.28;;;;;;;-7.38;85.56;102107.25;10505667;28;20044;-75
2023/01/06 11:53:20;;;;;;;10.90;3.50;;;;;;;-7.35;85.15;102107.84;10509628;28;20048;-72
2023/01/06 11:58:48;;;;;;;12.10;4.85;;;;;;;-7.36;85.54;102100.81;10526070;28;20240;-74
2023/01/06 12:03:53;;;;;;;9.30;3.53;;;;;;;-7.37;85.80;102106.28;10528849;28;20531;-73
2023/01/06 12:09:09;;;;;;;10.38;4.40;;;;;;;-7.41;86.19;102100.38;10511454;28;20419;-74
2023/01/06 12:14:20;;;;;;;5.47;3.20;;;;;;;-7.43;86.22;102098.81;10531702;28;20041;-74
2023/01/06 12:19:35;;;;;;;6.63;3.22;;;;;;;-7.42;86.00;102095.19;10515364;28;20040;-75
2023/01/06 12:24:38;;;;;;;6.15;3.17;;;;;;;-7.42;86.47;102100.50;10510862;28;20037;-74
2023/01/06 12:29:40;;;;;;;7.68;3.63;;;;;;;-7.38;86.70;102096.59;10509158;28;20036;-74
2023/01/06 12:34:48;;;;;;;5.97;2.97;;;;;;;-7.38;86.29;102104.59;10507217;28;20040;-75
2023/01/06 12:40:12;;;;;;;9.40;2.97;;;;;;;-7.42;86.66;102103.19;10476808;28;20049;-74
2023/01/06 12:45:19;;;;;;;4.75;2.92;;;;;;;-7.43;86.62;102105.00;10450389;28;20045;-74
2023/01/06 12:50:39;;;;;;;6.18;3.72;;;;;;;-7.43;86.90;102104.16;10508753;28;20039;-74
2023/01/06 12:55:51;;;;;;;5.70;2.90;;;;;;;-7.41;86.18;102107.53;10445265;28;20041;-74
2023/01/06 13:01:00;;;;;;;5.50;2.85;;;;;;;-7.43;86.87;102106.81;10440688;28;20048;-73
2023/01/06 13:06:02;;;;;;;8.07;2.97;;;;;;;-7.45;86.48;102120.28;10442758;28;20053;-74
2023/01/06 13:11:30;;;;;;;6.53;3.30;;;;;;;-7.37;86.88;102119.63;10472649;28;20056;-74
2023/01/06 13:16:42;;;;;;;;;;;;;;;-7.32;86.76;102122.75;10462768;28;20053;-74
2023/01/06 13:21:49;;;;;;;8.88;3.72;;;;;;;-7.34;86.49;102120.22;10460167;28;20331;-74
2023/01/06 13:27:19;;;;;;;5.80;3.53;;;;;;;-7.35;86.78;102117.66;10463399;28;20044;-73
2023/01/06 13:32:40;;;;;;;10.30;3.60;;;;;;;-7.38;86.94;102116.13;10485396;28;20508;-73
2023/01/06 13:38:19;;;;;;;6.15;2.88;;;;;;;-7.36;86.59;102115.97;10484338;28;20163;-74
2023/01/06 13:43:30;;;;;;;4.35;2.55;;;;;;;-7.37;86.55;102111.63;10459351;28;20041;-75
2023/01/06 13:48:39;;;;;;;4.28;2.03;;;;;;;-7.44;86.58;102111.31;10452267;28;20049;-74
2023/01/06 13:53:43;;;;;;;5.22;2.80;;;;;;;-7.47;86.72;102124.00;10501176;28;20048;-74
2023/01/06 13:58:46;;;;;;;6.45;3.20;;;;;;;-7.49;86.74;102117.97;10482065;28;20044;-74
2023/01/06 14:03:49;;;;;;;6.95;3.05;;;;;;;-7.48;86.41;102117.84;10467439;28;20049;-73
2023/01/06 14:08:56;;;;;;;5.03;2.47;;;;;;;-7.50;86.75;102119.78;10481599;28;20037;-74
2023/01/06 14:14:03;;;;;;;5.30;2.63;;;;;;;-7.49;86.77;102139.28;10466363;28;20041;-75
2023/01/06 14:19:08;;;;;;;2.67;2.00;;;;;;;-7.51;86.27;102130.59;10515090;28;20040;-75
2023/01/06 14:24:27;;;;;;;;;;;;;;;-7.48;86.32;102133.84;10502615;28;20037;-74
2023/01/06 14:29:40;;;;;;;4.55;2.38;;;;;;;-7.49;86.28;102129.47;10499569;28;19924;-74
2023/01/06 14:34:46;;;;;;;7.50;2.85;;;;;;;-7.49;86.23;102139.28;10487585;28;20404;-76
2023/01/06 14:39:50;;;;;;;2.75;2.00;;;;;;;-7.56;86.99;102140.78;10496967;28;20055;-74
2023/01/06 14:44:59;;;;;;;7.47;2.77;;;;;;;-7.60;86.88;102138.38;10503720;28;20040;-74
2023/01/06 14:50:05;;;;;;;5.10;2.80;;;;;;;-7.66;86.51;102138.88;10499983;28;20466;-82
2023/01/06 14:55:12;;;;;;;8.50;3.40;;;;;;;-7.65;87.32;102153.03;10512909;28;20039;-82
2023/01/06 15:00:15;;;;;;;3.83;2.85;;;;;;;-7.67;87.33;102157.66;10526005;28;20032;-81
2023/01/06 15:05:22;;;;;;;5.10;3.10;;;;;;;-7.65;86.98;102159.22;10528940;28;20036;-79
2023/01/06 15:10:39;;;;;;;4.32;2.33;;;;;;;-7.66;87.41;102162.84;10508406;28;20036;-77
2023/01/06 15:16:09;;;;;;;8.35;2.42;;;;;;;-7.64;86.72;102168.06;10527661;28;20044;-77
2023/01/06 15:21:12;;;;;;;3.88;2.10;;;;;;;-7.65;86.62;102161.88;10528677;28;20040;-74
2023/01/06 15:26:19;;;;;;;5.05;2.90;;;;;;;-7.63;86.92;102148.47;10514576;28;20379;-77
2023/01/06 15:31:21;;;;;;;6.47;3.38;;;;;;;-7.62;87.30;102164.31;10507309;28;21921;-77
2023/01/06 15:36:24;;;;;;;8.15;3.28;;;;;;;-7.52;86.92;102166.22;10509483;28;20056;-79
2023/01/06 15:41:35;;;;;;;3.95;2.53;;;;;;;-7.59;86.82;102168.53;10508960;28;20411;-78
2023/01/06 15:46:43;;;;;;;9.18;2.97;;;;;;;-7.52;86.91;102175.06;10524526;28;20045;-76
2023/01/06 15:52:01;;;;;;;7.10;3.15;;;;;;;-7.53;86.62;102178.69;10512600;28;20056;-78
2023/01/06 15:57:10;;;;;;;8.77;3.80;;;;;;;-7.53;86.76;102183.19;10511003;28;20040;-78
2023/01/06 16:02:17;;;;;;;8.27;3.75;;;;;;;-7.53;86.51;102177.84;10486090;28;20043;-79
2023/01/06 16:07:38;;;;;;;9.02;4.03;;;;;;;-7.57;86.95;102157.75;10511251;28;20052;-76
2023/01/06 16:12:41;;;;;;;7.93;3.47;;;;;;;-7.56;86.80;102183.44;10512302;28;20047;-72
2023/01/06 16:17:45;;;;;;;5.15;2.67;;;;;;;-7.54;86.64;102178.81;10546138;28;20049;-75
2023/01/06 16:22:53;;;;;;;9.07;3.33;;;;;;;-7.58;86.09;102170.25;10486901;28;20388;-75
2023/01/06 16:27:59;;;;;;;10.07;4.90;;;;;;;-7.54;86.95;102174.34;10502536;28;20422;-74
2023/01/06 16:33:01;;;;;;;14.30;6.32;;;;;;;-7.53;86.92;102177.84;10506872;28;20041;-75
2023/01/06 16:38:05;;;;;;;10.68;5.55;;;;;;;-7.52;86.54;102187.53;10497942;28;20044;-75
2023/01/06 16:43:08;;;;;;;12.98;5.28;;;;;;;-7.55;86.50;102185.97;10498176;28;20044;-74
2023/01/06 16:48:14;;;;;;;11.60;6.15;;;;;;;-7.55;87.01;102187.78;10492869;28;20044;-74
2023/01/06 16:53:21;;;;;;;11.93;5.80;;;;;;;-7.57;87.03;102190.59;10508826;28;20044;-73
2023/01/06 16:58:29;;;;;;;9.38;4.07;;;;;;;-7.55;86.62;102188.63;10516754;28;20076;-71
2023/01/06 17:03:36;;;;;;;13.60;4.43;;;;;;;-7.47;86.44;102188.00;10508470;28;20036;-73
2023/01/06 17:08:39;;;;;;;9.32;4.28;;;;;;;-7.53;85.98;102183.19;10485866;28;20044;-75
2023/01/06 17:13:50;;;;;;;11.25;4.30;;;;;;;-7.59;85.95;102187.22;10519199;28;20044;-74
2023/01/06 17:18:55;;;;;;;8.05;3.97;;;;;;;-7.62;86.11;102190.97;10523180;28;20051;-75
2023/01/06 17:24:07;;;;;;;11.32;6.00;;;;;;;-7.70;86.50;102187.22;10508616;28;20123;-75
2023/01/06 17:29:14;;;;;;;10.43;4.43;;;;;;;-7.73;86.87;102190.97;10525350;28;20051;-74
2023/01/06 17:34:20;;;;;;;8.73;4.15;;;;;;;-7.66;86.80;102194.00;10520743;28;20060;-74
2023/01/06 17:39:25;;;;;;;4.65;3.35;;;;;;;-7.69;87.02;102212.91;10486791;28;20060;-75
2023/01/06 17:44:34;;;;;;;7.53;3.78;;;;;;;-7.63;86.69;102207.94;10522399;28;20032;-75
2023/01/06 17:49:37;;;;;;;9.10;4.63;;;;;;;-7.60;86.64;102199.69;10508720;28;20415;-76
2023/01/06 18:00:26;;;;;;;;;;;;;;;-7.61;86.62;102198.00;10506933;28;21388;-78
2023/01/06 18:05:31;;;;;;;8.77;4.45;;;;;;;-7.60;86.42;102205.03;10519551;28;19920;-77
2023/01/06 18:10:38;;;;;;;6.68;3.67;;;;;;;-7.58;86.24;102196.03;10502848;28;20037;-78
2023/01/06 18:15:41;;;;;;;9.63;4.30;;;;;;;-7.53;86.73;102199.19;10482063;28;20406;-76
2023/01/06 18:20:53;;;;;;;8.65;4.20;;;;;;;-7.62;86.08;102212.28;10480085;28;20048;-75
2023/01/06 18:25:58;;;;;;;6.03;3.45;;;;;;;-7.62;86.35;102206.97;10488860;28;20063;-75
2023/01/06 18:31:01;;;;;;;7.57;3.45;;;;;;;-7.62;86.07;102206.97;10505678;28;20044;-77
2023/01/06 18:36:06;;;;;;;5.95;3.75;;;;;;;-7.52;86.35;102211.53;10523145;28;20045;-75
2023/01/06 18:41:10;;;;;;;5.97;3.58;;;;;;;-7.55;86.26;102227.78;10495587;28;20446;-75
2023/01/06 18:46:15;;;;;;;6.90;3.13;;;;;;;-7.51;86.11;102221.22;10432671;28;20044;-75
2023/01/06 18:51:20;;;;;;;9.15;3.65;;;;;;;-7.45;86.67;102218.06;10458044;28;20056;-74
2023/01/06 18:56:25;;;;;;;8.88;3.58;;;;;;;-7.41;85.89;102222.19;10478757;28;20415;-75
2023/01/06 19:01:39;;;;;;;5.20;2.95;;;;;;;-7.40;86.02;102221.19;10453590;28;20738;-75
2023/01/06 19:06:48;;;;;;;9.18;2.45;;;;;;;-7.34;85.55;102218.88;10469946;28;20068;-74
2023/01/06 19:11:59;;;;;;;3.45;1.65;;;;;;;-7.33;85.55;102222.38;10445540;28;20609;-77
2023/01/06 19:17:01;;;;;;;6.15;2.60;;;;;;;-7.38;85.56;102216.59;10456310;28;20083;-75
2023/01/06 19:22:19;;;;;;;4.63;1.80;;;;;;;-7.40;85.43;102218.53;10466423;28;20054;-78
2023/01/06 19:27:38;;;;;;;3.83;2.10;;;;;;;-7.46;85.31;102221.69;10477533;28;20040;-78
2023/01/06 19:32:40;;;;;;;2.40;1.40;;;;;;;-7.41;85.76;102224.84;10437950;28;20041;-76
2023/01/06 19:37:47;;;;;;;3.80;1.85;;;;;;;-7.43;85.57;102224.97;10475489;28;20052;-74
2023/01/06 19:42:49;;;;;;;2.88;1.98;;;;;;;-7.45;85.12;102226.06;10530256;28;20051;-73
2023/01/06 19:47:52;;;;;;;7.68;3.30;;;;;;;-7.38;85.50;102237.91;10531040;28;20048;-72
2023/01/06 19:53:01;;;;;;;3.40;2.00;;;;;;;-7.37;85.20;102223.59;10528579;28;20032;-74
2023/01/06 19:58:11;;;;;;;3.08;1.98;;;;;;;-7.36;85.00;102233.31;10512785;28;20048;-76
2023/01/06 20:03:35;;;;;;;3.47;1.30;;;;;;;-7.39;85.02;102239.75;10473166;28;20396;-73
2023/01/06 20:08:37;;;;;;;3.85;1.30;;;;;;;-7.38;85.10;102248.59;10484503;28;20049;-75
2023/01/06 20:13:40;;;;;;;3.67;1.50;;;;;;;-7.41;84.52;102251.50;10518527;28;20435;-74
2023/01/06 20:18:49;;;;;;;2.20;1.00;;;;;;;-7.50;84.58;102258.41;10510812;28;20044;-74
2023/01/06 20:23:57;;;;;;;4.83;2.30;;;;;;;-7.53;84.36;102265.81;10513798;28;20848;-75
2023/01/06 20:29:00;;;;;;;5.22;2.30;;;;;;;-7.53;84.10;102261.34;10525988;28;20048;-74
2023/01/06 20:34:03;;;;;;;4.47;2.53;;;;;;;-7.49;83.92;102265.44;10460738;28;20048;-75
2023/01/06 20:39:05;;;;;;;8.25;3.22;;;;;;;-7.48;84.42;102269.78;10499005;28;20063;-78
2023/01/06 20:44:07;;;;;;;4.05;2.30;;;;;;;-7.42;84.04;102265.81;10470479;28;20056;-76
2023/01/06 20:49:11;;;;;;;5.28;2.70;;;;;;;-7.40;84.11;102272.72;10487514;28;20415;-76
2023/01/06 20:54:21;;;;;;;5.53;2.60;;;;;;;-7.38;83.62;102268.09;10482964;28;20048;-76
2023/01/06 20:59:23;;;;;;;5.15;2.67;;;;;;;-7.38;83.96;102268.09;10512358;28;20036;-75
2023/01/06 21:04:26;;;;;;;5.97;2.67;;;;;;;-7.36;83.48;102274.16;10501089;28;20036;-78
2023/01/06 21:09:29;;;;;;;8.88;3.15;;;;;;;-7.32;83.78;102264.06;10468323;28;20036;-77
2023/01/06 21:14:32;;;;;;;4.80;3.00;;;;;;;-7.28;83.59;102275.34;10504990;28;20044;-75
2023/01/06 21:19:38;;;;;;;4.00;2.55;;;;;;;-7.26;83.81;102281.41;10528296;28;20041;-75
2023/01/06 21:24:41;;;;;;;3.78;2.50;;;;;;;-7.28;83.32;102288.69;10514894;28;20506;-75
2023/01/06 21:29:43;;;;;;;4.95;2.40;;;;;;;-7.29;83.14;102285.16;10507641;28;20058;-79
2023/01/06 21:34:46;;;;;;;3.20;1.80;;;;;;;-7.31;83.41;102284.44;10522741;28;20044;-77
2023/01/06 21:39:49;;;;;;;3.50;2.33;;;;;;;-7.30;83.20;102294.13;10515867;28;20151;-81
2023/01/06 21:44:52;;;;;;;3.63;1.70;;;;;;;-7.35;83.27;102291.84;10517977;28;20430;-82
2023/01/06 21:49:54;;;;;;;5.32;1.70;;;;;;;-7.36;82.84;102294.63;10510336;28;20049;-78
2023/01/06 21:54:57;;;;;;;4.00;1.80;;;;;;;-7.38;83.94;102297.41;10516542;28;20419;-78
2023/01/06 22:00:00;;;;;;;5.20;2.80;;;;;;;-7.34;83.51;102296.19;10555276;28;20036;-77
2023/01/06 22:05:03;;;;;;;7.35;3.88;;;;;;;-7.35;83.64;102305.16;10504693;28;20037;-81
2023/01/06 22:10:06;;;;;;;8.88;3.75;;;;;;;-7.37;84.22;102301.78;10511344;28;20130;-79
2023/01/06 22:15:09;;;;;;;8.88;3.75;;;;;;;-7.39;83.89;102301.06;10541086;28;20044;-77
2023/01/06 22:20:12;;;;;;;6.68;3.90;;;;;;;-7.37;83.75;102311.59;10530059;28;20049;-77
2023/01/06 22:25:14;;;;;;;6.13;3.05;;;;;;;-7.35;83.94;102315.00;10512109;28;20150;-78
2023/01/06 22:30:17;;;;;;;6.32;2.92;;;;;;;-7.35;83.96;102310.50;10526749;28;20044;-77
2023/01/06 22:35:19;;;;;;;4.90;2.58;;;;;;;-7.32;83.79;102312.06;10510675;28;20044;-78
2023/01/06 22:40:21;;;;;;;5.18;2.97;;;;;;;-7.29;84.20;102306.47;10528996;28;20056;-77
2023/01/06 22:45:23;;;;;;;5.68;2.75;;;;;;;-7.28;84.23;102310.03;10517035;28;20056;-83
2023/01/06 22:50:25;;;;;;;4.97;2.55;;;;;;;-7.27;83.99;102317.06;10531875;28;20075;-78
2023/01/06 22:55:28;;;;;;;3.65;2.30;;;;;;;-7.31;84.01;102317.28;10512640;28;20041;-85
2023/01/06 23:00:31;;;;;;;4.22;2.47;;;;;;;-7.34;83.95;102314.00;10528823;28;20044;-83
2023/01/06 23:05:33;;;;;;;7.63;2.50;;;;;;;-7.36;83.34;102314.13;10536761;28;20040;-83
2023/01/06 23:10:36;;;;;;;3.53;2.30;;;;;;;-7.35;83.89;102317.66;10528867;28;20055;-77
2023/01/06 23:15:39;;;;;;;4.55;2.60;;;;;;;-7.36;83.38;102324.81;10510617;28;20675;-78
2023/01/06 23:20:41;;;;;;;4.78;2.40;;;;;;;-7.40;83.42;102312.69;10525520;28;20490;-77
2023/01/06 23:25:45;;;;;;;5.10;3.17;;;;;;;-7.35;83.79;102321.16;10503154;28;20502;-80
2023/01/06 23:30:48;;;;;;;4.53;2.65;;;;;;;-7.35;83.70;102320.31;10504454;28;20120;-78
2023/01/06 23:35:50;;;;;;;6.78;2.90;;;;;;;-7.33;84.07;102318.38;10495123;28;20056;-78